Ellen — SIDM — position and weather

sailwx.info

Track history (hours):
 
Tides and Currents Weather Stations Pressure Air Temp Water Temp Dewpoint Dewpoint Depression Visibility Wind Speed Wind Dir Waves Ship Positions

Ellen (Sweden)

Ship's website: http://www.syellen.org/Skolsegelfartyget_Ellen/Hem.html

Last reported at 2017-Sep-22 02:00 UTC. Time now 2017-Sep-22 15:24 UTC.
Position N 59°19' E 018°06'.

Length 22 m; draft 2.2 m.

Type: Sailing vessel. MMSI: 265508900.

Date/timePositionNaut miles runAvg speedWind from/ knotsBaromVisibWave heightAir tempDewpointWater temp
2017-Sep-22 02:00N 59°19' E 018°06'0 0.0
2017-Sep-22 01:30N 59°19' E 018°06'0 0.0
2017-Sep-22 01:00N 59°19' E 018°06'0 0.0
2017-Sep-22 00:30N 59°19' E 018°06'0 0.0
2017-Sep-22 00:00N 59°19' E 018°06'0 0.0
2017-Sep-21 23:30N 59°19' E 018°06'0 0.0
2017-Sep-21 23:00N 59°19' E 018°06'0 0.0
2017-Sep-21 22:30N 59°19' E 018°06'0 0.0
2017-Sep-21 22:00N 59°19' E 018°06'0 0.0
2017-Sep-21 21:30N 59°19' E 018°06'0 0.0
2017-Sep-21 21:00N 59°19' E 018°06'0 0.0
2017-Sep-21 20:30N 59°19' E 018°06'0 0.0
2017-Sep-21 20:00N 59°19' E 018°06'0 0.0
2017-Sep-21 19:30N 59°19' E 018°06'0 0.0
2017-Sep-21 19:00N 59°19' E 018°06'0 0.0
2017-Sep-21 18:30N 59°19' E 018°06'0 0.0
2017-Sep-21 18:00N 59°19' E 018°06'0 0.0
2017-Sep-21 17:30N 59°19' E 018°06'0 0.0
2017-Sep-21 17:00N 59°19' E 018°06'0 0.0
2017-Sep-21 16:30N 59°19' E 018°06'0 0.0
2017-Sep-21 16:00N 59°19' E 018°06'0 0.0
2017-Sep-21 15:30N 59°19' E 018°06'0 0.0
2017-Sep-21 15:00N 59°19' E 018°06'1 2.3
2017-Sep-21 14:30N 59°19' E 018°08'3 5.1
2017-Sep-21 14:00N 59°19' E 018°13'2 4.2
2017-Sep-21 13:30N 59°18' E 018°17'2 3.4
2017-Sep-21 13:00N 59°17' E 018°20'3 6.1
2017-Sep-21 12:30N 59°15' E 018°24'3 5.4
2017-Sep-21 12:00N 59°13' E 018°28'2 3.1
2017-Sep-21 11:30N 59°13' E 018°30'2 4.2
2017-Sep-21 10:59N 59°13' E 018°35'3 5.2
2017-Sep-21 10:30N 59°14' E 018°38'1 0.5
2017-Sep-21 07:14N 59°16' E 018°39'0 0.0
2017-Sep-21 06:26N 59°16' E 018°39'0 0.0
2017-Sep-20 19:44N 59°16' E 018°39'1 0.2
2017-Sep-20 11:53N 59°15' E 018°41'1 0.4
2017-Sep-20 09:50N 59°15' E 018°40'0 0.1
2017-Sep-20 09:26N 59°15' E 018°40'4 0.2
2017-Sep-19 14:01N 59°12' E 018°33'0 4.7
2017-Sep-19 13:59N 59°12' E 018°33'2 4.6
2017-Sep-19 13:30N 59°13' E 018°29'1 2.8
2017-Sep-19 13:01N 59°14' E 018°27'1 2.1
2017-Sep-19 12:29N 59°15' E 018°25'2 4.2
2017-Sep-19 12:01N 59°16' E 018°22'1 2.9
2017-Sep-19 11:30N 59°17' E 018°20'1 1.8
2017-Sep-19 11:00N 59°18' E 018°19'1 1.0
2017-Sep-19 10:30N 59°18' E 018°19'0 0.6
2017-Sep-19 10:00N 59°18' E 018°18'1 2.9
2017-Sep-19 09:30N 59°18' E 018°16'2 3.6
2017-Sep-19 09:00N 59°19' E 018°13'2 3.4
2017-Sep-19 08:30N 59°19' E 018°10'2 4.0
2017-Sep-19 08:00N 59°19' E 018°06'0 0.0
2017-Sep-19 07:30N 59°19' E 018°06'0 0.0
2017-Sep-19 07:00N 59°19' E 018°06'0 0.0
2017-Sep-19 06:30N 59°19' E 018°06'0 0.0
2017-Sep-19 06:00N 59°19' E 018°06'0 0.0
2017-Sep-19 05:30N 59°19' E 018°06'0 0.0
2017-Sep-19 05:00N 59°19' E 018°06'0 0.0
2017-Sep-19 04:27N 59°19' E 018°06'0 0.0
2017-Sep-19 04:00N 59°19' E 018°06'0 0.0
2017-Sep-19 03:30N 59°19' E 018°06'0 0.0
2017-Sep-19 03:00N 59°19' E 018°06'0 0.0
2017-Sep-19 02:30N 59°19' E 018°06'0 0.0
2017-Sep-19 02:00N 59°19' E 018°06'0 0.0
2017-Sep-19 01:30N 59°19' E 018°06'0 0.0
2017-Sep-19 01:00N 59°19' E 018°06'0 0.0
2017-Sep-19 00:30N 59°19' E 018°06'0 0.0
2017-Sep-19 00:00N 59°19' E 018°06'0 0.0
2017-Sep-18 23:30N 59°19' E 018°06'0 0.0
2017-Sep-18 23:00N 59°19' E 018°06'0 0.0
2017-Sep-18 22:30N 59°19' E 018°06'0 0.0
2017-Sep-18 22:00N 59°19' E 018°06'0 0.0
2017-Sep-18 21:30N 59°19' E 018°06'0 0.0
2017-Sep-18 21:00N 59°19' E 018°06'0 0.0
2017-Sep-18 20:30N 59°19' E 018°06'0 0.0
2017-Sep-18 20:00N 59°19' E 018°06'0 0.0
2017-Sep-18 19:30N 59°19' E 018°06'0 0.0
2017-Sep-18 19:00N 59°19' E 018°06'0 0.0
2017-Sep-18 18:30N 59°19' E 018°06'0 0.0
2017-Sep-18 17:57N 59°19' E 018°06'0 0.0
2017-Sep-18 17:30N 59°19' E 018°06'0 0.0
2017-Sep-18 17:00N 59°19' E 018°06'0 0.0
2017-Sep-18 16:27N 59°19' E 018°06'0 0.0
2017-Sep-18 15:57N 59°19' E 018°06'0 0.0
2017-Sep-18 15:30N 59°19' E 018°06'0 0.0
2017-Sep-18 15:00N 59°19' E 018°06'0 0.0
2017-Sep-18 14:27N 59°19' E 018°06'0 0.0
2017-Sep-18 14:00N 59°19' E 018°06'0 0.0
2017-Sep-18 13:30N 59°19' E 018°06'0 0.0
2017-Sep-18 13:00N 59°19' E 018°06'0 0.0
2017-Sep-18 12:30N 59°19' E 018°06'0 0.0
2017-Sep-18 12:00N 59°19' E 018°06'0 0.0
2017-Sep-18 11:30N 59°19' E 018°06'0 0.0
2017-Sep-18 11:00N 59°19' E 018°06'0 0.0
2017-Sep-18 10:30N 59°19' E 018°06'0 0.0
2017-Sep-18 10:00N 59°19' E 018°06'0 0.0
2017-Sep-18 09:30N 59°19' E 018°06'0 0.0
2017-Sep-18 09:00N 59°19' E 018°06'0 0.0
2017-Sep-18 08:30N 59°19' E 018°06'0 0.0
2017-Sep-18 07:57N 59°19' E 018°06'0 0.0
2017-Sep-18 07:30N 59°19' E 018°06'0 0.0
2017-Sep-18 07:00N 59°19' E 018°06'0 0.0
2017-Sep-18 06:30N 59°19' E 018°06'0 0.0
2017-Sep-18 05:54N 59°19' E 018°06'0 0.0
2017-Sep-18 05:24N 59°19' E 018°06'0 0.0
2017-Sep-18 05:00N 59°19' E 018°06'0 0.0
2017-Sep-18 04:30N 59°19' E 018°06'0 0.0
2017-Sep-18 04:00N 59°19' E 018°06'0 0.0
2017-Sep-18 03:30N 59°19' E 018°06'0 0.0
2017-Sep-18 02:57N 59°19' E 018°06'0 0.0
2017-Sep-18 02:30N 59°19' E 018°06'0 0.0
2017-Sep-18 02:00N 59°19' E 018°06'0 0.0
2017-Sep-18 01:30N 59°19' E 018°06'0 0.0
2017-Sep-18 01:00N 59°19' E 018°06'0 0.0
2017-Sep-18 00:30N 59°19' E 018°06'0 0.0
2017-Sep-18 00:00N 59°19' E 018°06'0 0.0
2017-Sep-17 23:30N 59°19' E 018°06'0 0.0
2017-Sep-17 23:00N 59°19' E 018°06'0 0.0
2017-Sep-17 22:30N 59°19' E 018°06'0 0.0
2017-Sep-17 22:00N 59°19' E 018°06'0 0.0
2017-Sep-17 21:30N 59°19' E 018°06'0 0.0
2017-Sep-17 21:00N 59°19' E 018°06'0 0.0
2017-Sep-17 20:30N 59°19' E 018°06'0 0.0
2017-Sep-17 20:00N 59°19' E 018°06'0 0.0
2017-Sep-17 19:30N 59°19' E 018°06'0 0.0
2017-Sep-17 19:00N 59°19' E 018°06'0 0.0
2017-Sep-17 18:30N 59°19' E 018°06'0 0.0
2017-Sep-17 18:00N 59°19' E 018°06'0 0.0
2017-Sep-17 17:30N 59°19' E 018°06'0 0.0
2017-Sep-17 16:54N 59°19' E 018°06'0 0.0
2017-Sep-17 16:30N 59°19' E 018°06'0 0.0
2017-Sep-17 16:00N 59°19' E 018°06'0 0.0
2017-Sep-17 15:30N 59°19' E 018°06'0 0.0
2017-Sep-17 14:54N 59°19' E 018°06'0 0.0
2017-Sep-17 14:30N 59°19' E 018°06'0 0.3
2017-Sep-17 14:00N 59°19' E 018°06'4 7.6
2017-Sep-17 13:30N 59°21' E 018°13'4 8.0
2017-Sep-17 13:00N 59°23' E 018°20'3 5.7
2017-Sep-17 12:30N 59°25' E 018°22'3 5.0
2017-Sep-17 12:00N 59°25' E 018°27'3 2.8
2017-Sep-17 11:06N 59°25' E 018°32'1 2.6
2017-Sep-17 10:42N 59°24' E 018°33'1 4.0
2017-Sep-17 10:30N 59°24' E 018°35'5 0.3
2017-Sep-16 15:40N 59°26' E 018°43'2 7.1
2017-Sep-16 15:24N 59°26' E 018°39'2 4.6
2017-Sep-16 14:59N 59°24' E 018°37'3 6.0
2017-Sep-16 14:30N 59°25' E 018°31'1 1.8
2017-Sep-16 13:58N 59°26' E 018°30'1 2.3
2017-Sep-16 13:30N 59°26' E 018°28'1 2.2
2017-Sep-16 12:51N 59°27' E 018°25'1 1.8
2017-Sep-16 12:30N 59°26' E 018°24'1 1.7
2017-Sep-16 12:01N 59°26' E 018°24'3 5.3
2017-Sep-16 11:30N 59°23' E 018°27'2 4.9
2017-Sep-16 11:00N 59°22' E 018°23'3 6.4
2017-Sep-16 10:30N 59°22' E 018°17'4 7.5
2017-Sep-16 10:00N 59°20' E 018°11'3 4.6
2017-Sep-16 09:28N 59°19' E 018°06'0 0.0
2017-Sep-16 08:58N 59°19' E 018°06'0 0.0
2017-Sep-16 08:28N 59°19' E 018°06'0 0.0
2017-Sep-16 07:58N 59°19' E 018°06'0 0.0
2017-Sep-16 07:28N 59°19' E 018°06'0 0.0
2017-Sep-16 06:58N 59°19' E 018°06'0 0.0
2017-Sep-16 06:19N 59°19' E 018°06'0 0.0
2017-Sep-16 05:58N 59°19' E 018°06'0 0.0
2017-Sep-16 05:28N 59°19' E 018°06'0 0.0
2017-Sep-16 04:49N 59°19' E 018°06'0 0.0
2017-Sep-16 04:22N 59°19' E 018°06'0 0.0
2017-Sep-16 03:55N 59°19' E 018°06'0 0.0
2017-Sep-16 03:25N 59°19' E 018°06'0 0.0
2017-Sep-16 02:58N 59°19' E 018°06'0 0.0
2017-Sep-16 02:31N 59°19' E 018°06'0 0.0
2017-Sep-16 01:58N 59°19' E 018°06'0 0.0
2017-Sep-16 01:27N 59°19' E 018°06'0 0.0
2017-Sep-16 00:58N 59°19' E 018°06'0 0.0
2017-Sep-16 00:28N 59°19' E 018°06'0 0.0
2017-Sep-16 00:01N 59°19' E 018°06'0 0.0
2017-Sep-15 23:30N 59°19' E 018°06'0 0.0
2017-Sep-15 22:58N 59°19' E 018°06'0 0.0
2017-Sep-15 22:30N 59°19' E 018°06'0 0.0
2017-Sep-15 22:00N 59°19' E 018°06'0 0.0
2017-Sep-15 21:30N 59°19' E 018°06'0 0.0
2017-Sep-15 20:58N 59°19' E 018°06'0 0.0
2017-Sep-15 20:31N 59°19' E 018°06'0 0.0
2017-Sep-15 20:01N 59°19' E 018°06'0 0.0
2017-Sep-15 19:28N 59°19' E 018°06'0 0.0
2017-Sep-15 19:00N 59°19' E 018°06'0 0.0
2017-Sep-15 18:25N 59°19' E 018°06'0 0.0
2017-Sep-15 18:00N 59°19' E 018°06'0 0.0
2017-Sep-15 17:19N 59°19' E 018°06'0 0.0
2017-Sep-15 17:01N 59°19' E 018°06'0 0.0
2017-Sep-15 16:19N 59°19' E 018°06'0 0.0
2017-Sep-15 15:55N 59°19' E 018°06'0 0.0
2017-Sep-15 15:25N 59°19' E 018°06'0 0.0
2017-Sep-15 15:00N 59°19' E 018°06'0 0.0
2017-Sep-15 14:27N 59°19' E 018°06'0 0.0
2017-Sep-15 13:58N 59°19' E 018°06'0 0.0
2017-Sep-15 13:31N 59°19' E 018°06'0 0.0
2017-Sep-15 13:01N 59°19' E 018°06'0 0.0
2017-Sep-15 12:30N 59°19' E 018°06'0 0.0
2017-Sep-15 11:57N 59°19' E 018°06'0 0.0
2017-Sep-15 11:31N 59°19' E 018°06'0 0.0
2017-Sep-15 11:01N 59°19' E 018°06'0 0.0
2017-Sep-15 10:30N 59°19' E 018°06'0 0.0
2017-Sep-15 10:00N 59°19' E 018°06'0 0.0
2017-Sep-15 09:31N 59°19' E 018°06'0 0.0
2017-Sep-15 09:00N 59°19' E 018°06'0 0.0
2017-Sep-15 08:31N 59°19' E 018°06'0 0.0
2017-Sep-15 08:00N 59°19' E 018°06'0 0.0
2017-Sep-15 07:30N 59°19' E 018°06'0 0.0
2017-Sep-15 07:01N 59°19' E 018°06'0 0.0
2017-Sep-15 06:22N 59°19' E 018°06'0 0.0
2017-Sep-15 06:00N 59°19' E 018°06'0 0.0
2017-Sep-15 05:31N 59°19' E 018°06'0 0.0
2017-Sep-15 05:01N 59°19' E 018°06'0 0.0
2017-Sep-15 04:25N 59°19' E 018°06'0 0.0
2017-Sep-15 04:00N 59°19' E 018°06'0 0.0
2017-Sep-15 03:30N 59°19' E 018°06'0 0.0
2017-Sep-15 03:01N 59°19' E 018°06'0 0.0
2017-Sep-15 02:30N 59°19' E 018°06'0 0.0
2017-Sep-15 01:55N 59°19' E 018°06'0 0.0
2017-Sep-15 01:31N 59°19' E 018°06'0 0.0
2017-Sep-15 01:00N 59°19' E 018°06'0 0.0
2017-Sep-15 00:31N 59°19' E 018°06'0 0.0
2017-Sep-15 00:01N 59°19' E 018°06'0 0.0
2017-Sep-14 23:30N 59°19' E 018°06'0 0.0
2017-Sep-14 23:00N 59°19' E 018°06'0 0.0
2017-Sep-14 22:30N 59°19' E 018°06'0 0.0
2017-Sep-14 22:00N 59°19' E 018°06'0 0.0
2017-Sep-14 21:31N 59°19' E 018°06'0 0.0
2017-Sep-14 21:01N 59°19' E 018°06'0 0.0
2017-Sep-14 20:30N 59°19' E 018°06'0 0.0
2017-Sep-14 20:01N 59°19' E 018°06'0 0.0
2017-Sep-14 19:31N 59°19' E 018°06'0 0.0
2017-Sep-14 19:01N 59°19' E 018°06'0 0.0
2017-Sep-14 18:31N 59°19' E 018°06'0 0.0
2017-Sep-14 17:55N 59°19' E 018°06'0 0.0
2017-Sep-14 17:24N 59°19' E 018°06'0 0.0
2017-Sep-14 17:00N 59°19' E 018°06'0 0.0
2017-Sep-14 16:30N 59°19' E 018°06'0 0.0
2017-Sep-14 16:00N 59°19' E 018°06'0 0.0
2017-Sep-14 15:31N 59°19' E 018°06'0 0.0
2017-Sep-14 14:55N 59°19' E 018°06'0 0.0
2017-Sep-14 14:30N 59°19' E 018°06'0 0.0
2017-Sep-14 14:00N 59°19' E 018°06'0 0.5
2017-Sep-14 13:31N 59°19' E 018°07'2 3.3
2017-Sep-14 13:00N 59°19' E 018°10'2 5.0
2017-Sep-14 12:31N 59°21' E 018°14'3 5.2
2017-Sep-14 12:00N 59°22' E 018°18'3 5.6
2017-Sep-14 11:30N 59°22' E 018°24'2 3.6
2017-Sep-14 11:00N 59°23' E 018°27'2 4.6
2017-Sep-14 10:31N 59°25' E 018°25'1 2.3
2017-Sep-14 10:01N 59°25' E 018°27'4 4.9
2017-Sep-14 09:14N 59°24' E 018°34'1 4.5
2017-Sep-14 08:55N 59°24' E 018°37'12 0.5
2017-Sep-13 09:49N 59°12' E 018°33'2 5.6
2017-Sep-13 09:30N 59°13' E 018°30'2 4.3
2017-Sep-13 08:59N 59°14' E 018°26'0 0.1
2017-Sep-13 08:30N 59°14' E 018°26'2 3.2
2017-Sep-13 07:52N 59°14' E 018°22'0 0.0
2017-Sep-13 07:22N 59°14' E 018°22'0 0.0
2017-Sep-13 06:58N 59°14' E 018°22'0 0.0
2017-Sep-13 06:28N 59°14' E 018°22'1 2.7
2017-Sep-13 06:00N 59°14' E 018°24'1 0.8
2017-Sep-13 05:19N 59°14' E 018°24'0 0.0
2017-Sep-13 04:49N 59°14' E 018°24'0 0.0
2017-Sep-13 04:19N 59°14' E 018°24'0 0.0
2017-Sep-13 03:37N 59°14' E 018°24'0 0.0
2017-Sep-13 02:31N 59°14' E 018°24'0 0.0
2017-Sep-13 02:13N 59°14' E 018°24'0 0.0
2017-Sep-12 22:07N 59°14' E 018°24'0 0.0
2017-Sep-12 21:55N 59°14' E 018°24'0 0.0
2017-Sep-12 21:25N 59°14' E 018°24'0 0.0
2017-Sep-12 20:55N 59°14' E 018°24'0 0.0
2017-Sep-12 20:25N 59°14' E 018°24'0 0.0
2017-Sep-12 19:55N 59°14' E 018°24'0 0.0
2017-Sep-12 19:13N 59°14' E 018°24'0 0.0
2017-Sep-12 18:07N 59°14' E 018°24'0 0.0
2017-Sep-12 17:49N 59°14' E 018°24'0 0.0
2017-Sep-12 17:13N 59°14' E 018°24'0 0.0
2017-Sep-12 16:55N 59°14' E 018°24'0 0.0
2017-Sep-12 16:25N 59°14' E 018°24'0 0.0
2017-Sep-12 15:55N 59°14' E 018°24'0 0.2
2017-Sep-12 15:30N 59°14' E 018°24'0 0.1
2017-Sep-12 15:00N 59°14' E 018°24'1 1.3
2017-Sep-12 14:31N 59°14' E 018°24'1 2.8
2017-Sep-12 13:59N 59°12' E 018°26'2 3.8
2017-Sep-12 13:31N 59°13' E 018°30'1 2.2
2017-Sep-12 13:01N 59°13' E 018°28'2 3.3
2017-Sep-12 12:30N 59°14' E 018°26'0 0.9
2017-Sep-12 12:00N 59°14' E 018°25'2 4.0
2017-Sep-12 11:31N 59°16' E 018°22'2 4.7
2017-Sep-12 11:00N 59°18' E 018°19'1 2.7
2017-Sep-12 10:30N 59°18' E 018°17'2 3.7
2017-Sep-12 10:00N 59°19' E 018°13'1 2.8
2017-Sep-12 09:31N 59°20' E 018°11'3 5.3
2017-Sep-12 09:00N 59°19' E 018°06'0 0.0
2017-Sep-12 08:30N 59°19' E 018°06'0 0.0
2017-Sep-12 08:00N 59°19' E 018°06'0 0.0
2017-Sep-12 07:30N 59°19' E 018°06'0 0.0
2017-Sep-12 07:00N 59°19' E 018°06'0 0.0
2017-Sep-12 06:30N 59°19' E 018°06'0 0.0
2017-Sep-12 06:00N 59°19' E 018°06'0 0.0
2017-Sep-12 05:30N 59°19' E 018°06'0 0.0
2017-Sep-12 05:00N 59°19' E 018°06'0 0.0
2017-Sep-12 04:30N 59°19' E 018°06'0 0.0
2017-Sep-12 04:00N 59°19' E 018°06'0 0.0
2017-Sep-12 03:30N 59°19' E 018°06'0 0.0
2017-Sep-12 03:00N 59°19' E 018°06'0 0.0
2017-Sep-12 02:30N 59°19' E 018°06'  
Track history (hours):
 
Tides and Currents Weather Stations Pressure Air Temp Water Temp Dewpoint Dewpoint Depression Visibility Wind Speed Wind Dir Waves Ship Positions

Ellen (Sweden)

Ship's website: http://www.syellen.org/Skolsegelfartyget_Ellen/Hem.html

Last reported at 2017-Sep-22 02:00 UTC. Time now 2017-Sep-22 15:24 UTC.
Position N 59°19' E 018°06'.

Length 22 m; draft 2.2 m.

Type: Sailing vessel. MMSI: 265508900.

Date/timePositionNaut miles runAvg speedWind from/ knotsBaromVisibWave heightAir tempDewpointWater temp
2017-Sep-22 02:00N 59°19' E 018°06'0 0.0
2017-Sep-22 01:30N 59°19' E 018°06'0 0.0
2017-Sep-22 01:00N 59°19' E 018°06'0 0.0
2017-Sep-22 00:30N 59°19' E 018°06'0 0.0
2017-Sep-22 00:00N 59°19' E 018°06'0 0.0
2017-Sep-21 23:30N 59°19' E 018°06'0 0.0
2017-Sep-21 23:00N 59°19' E 018°06'0 0.0
2017-Sep-21 22:30N 59°19' E 018°06'0 0.0
2017-Sep-21 22:00N 59°19' E 018°06'0 0.0
2017-Sep-21 21:30N 59°19' E 018°06'0 0.0
2017-Sep-21 21:00N 59°19' E 018°06'0 0.0
2017-Sep-21 20:30N 59°19' E 018°06'0 0.0
2017-Sep-21 20:00N 59°19' E 018°06'0 0.0
2017-Sep-21 19:30N 59°19' E 018°06'0 0.0
2017-Sep-21 19:00N 59°19' E 018°06'0 0.0
2017-Sep-21 18:30N 59°19' E 018°06'0 0.0
2017-Sep-21 18:00N 59°19' E 018°06'0 0.0
2017-Sep-21 17:30N 59°19' E 018°06'0 0.0
2017-Sep-21 17:00N 59°19' E 018°06'0 0.0
2017-Sep-21 16:30N 59°19' E 018°06'0 0.0
2017-Sep-21 16:00N 59°19' E 018°06'0 0.0
2017-Sep-21 15:30N 59°19' E 018°06'0 0.0
2017-Sep-21 15:00N 59°19' E 018°06'1 2.3
2017-Sep-21 14:30N 59°19' E 018°08'3 5.1
2017-Sep-21 14:00N 59°19' E 018°13'2 4.2
2017-Sep-21 13:30N 59°18' E 018°17'2 3.4
2017-Sep-21 13:00N 59°17' E 018°20'3 6.1
2017-Sep-21 12:30N 59°15' E 018°24'3 5.4
2017-Sep-21 12:00N 59°13' E 018°28'2 3.1
2017-Sep-21 11:30N 59°13' E 018°30'2 4.2
2017-Sep-21 10:59N 59°13' E 018°35'3 5.2
2017-Sep-21 10:30N 59°14' E 018°38'1 0.5
2017-Sep-21 07:14N 59°16' E 018°39'0 0.0
2017-Sep-21 06:26N 59°16' E 018°39'0 0.0
2017-Sep-20 19:44N 59°16' E 018°39'1 0.2
2017-Sep-20 11:53N 59°15' E 018°41'1 0.4
2017-Sep-20 09:50N 59°15' E 018°40'0 0.1
2017-Sep-20 09:26N 59°15' E 018°40'4 0.2
2017-Sep-19 14:01N 59°12' E 018°33'0 4.7
2017-Sep-19 13:59N 59°12' E 018°33'2 4.6
2017-Sep-19 13:30N 59°13' E 018°29'1 2.8
2017-Sep-19 13:01N 59°14' E 018°27'1 2.1
2017-Sep-19 12:29N 59°15' E 018°25'2 4.2
2017-Sep-19 12:01N 59°16' E 018°22'1 2.9
2017-Sep-19 11:30N 59°17' E 018°20'1 1.8
2017-Sep-19 11:00N 59°18' E 018°19'1 1.0
2017-Sep-19 10:30N 59°18' E 018°19'0 0.6
2017-Sep-19 10:00N 59°18' E 018°18'1 2.9
2017-Sep-19 09:30N 59°18' E 018°16'2 3.6
2017-Sep-19 09:00N 59°19' E 018°13'2 3.4
2017-Sep-19 08:30N 59°19' E 018°10'2 4.0
2017-Sep-19 08:00N 59°19' E 018°06'0 0.0
2017-Sep-19 07:30N 59°19' E 018°06'0 0.0
2017-Sep-19 07:00N 59°19' E 018°06'0 0.0
2017-Sep-19 06:30N 59°19' E 018°06'0 0.0
2017-Sep-19 06:00N 59°19' E 018°06'0 0.0
2017-Sep-19 05:30N 59°19' E 018°06'0 0.0
2017-Sep-19 05:00N 59°19' E 018°06'0 0.0
2017-Sep-19 04:27N 59°19' E 018°06'0 0.0
2017-Sep-19 04:00N 59°19' E 018°06'0 0.0
2017-Sep-19 03:30N 59°19' E 018°06'0 0.0
2017-Sep-19 03:00N 59°19' E 018°06'0 0.0
2017-Sep-19 02:30N 59°19' E 018°06'0 0.0
2017-Sep-19 02:00N 59°19' E 018°06'0 0.0
2017-Sep-19 01:30N 59°19' E 018°06'0 0.0
2017-Sep-19 01:00N 59°19' E 018°06'0 0.0
2017-Sep-19 00:30N 59°19' E 018°06'0 0.0
2017-Sep-19 00:00N 59°19' E 018°06'0 0.0
2017-Sep-18 23:30N 59°19' E 018°06'0 0.0
2017-Sep-18 23:00N 59°19' E 018°06'0 0.0
2017-Sep-18 22:30N 59°19' E 018°06'0 0.0
2017-Sep-18 22:00N 59°19' E 018°06'0 0.0
2017-Sep-18 21:30N 59°19' E 018°06'0 0.0
2017-Sep-18 21:00N 59°19' E 018°06'0 0.0
2017-Sep-18 20:30N 59°19' E 018°06'0 0.0
2017-Sep-18 20:00N 59°19' E 018°06'0 0.0
2017-Sep-18 19:30N 59°19' E 018°06'0 0.0
2017-Sep-18 19:00N 59°19' E 018°06'0 0.0
2017-Sep-18 18:30N 59°19' E 018°06'0 0.0
2017-Sep-18 17:57N 59°19' E 018°06'0 0.0
2017-Sep-18 17:30N 59°19' E 018°06'0 0.0
2017-Sep-18 17:00N 59°19' E 018°06'0 0.0
2017-Sep-18 16:27N 59°19' E 018°06'0 0.0
2017-Sep-18 15:57N 59°19' E 018°06'0 0.0
2017-Sep-18 15:30N 59°19' E 018°06'0 0.0
2017-Sep-18 15:00N 59°19' E 018°06'0 0.0
2017-Sep-18 14:27N 59°19' E 018°06'0 0.0
2017-Sep-18 14:00N 59°19' E 018°06'0 0.0
2017-Sep-18 13:30N 59°19' E 018°06'0 0.0
2017-Sep-18 13:00N 59°19' E 018°06'0 0.0
2017-Sep-18 12:30N 59°19' E 018°06'0 0.0
2017-Sep-18 12:00N 59°19' E 018°06'0 0.0
2017-Sep-18 11:30N 59°19' E 018°06'0 0.0
2017-Sep-18 11:00N 59°19' E 018°06'0 0.0
2017-Sep-18 10:30N 59°19' E 018°06'0 0.0
2017-Sep-18 10:00N 59°19' E 018°06'0 0.0
2017-Sep-18 09:30N 59°19' E 018°06'0 0.0
2017-Sep-18 09:00N 59°19' E 018°06'0 0.0
2017-Sep-18 08:30N 59°19' E 018°06'0 0.0
2017-Sep-18 07:57N 59°19' E 018°06'0 0.0
2017-Sep-18 07:30N 59°19' E 018°06'0 0.0
2017-Sep-18 07:00N 59°19' E 018°06'0 0.0
2017-Sep-18 06:30N 59°19' E 018°06'0 0.0
2017-Sep-18 05:54N 59°19' E 018°06'0 0.0
2017-Sep-18 05:24N 59°19' E 018°06'0 0.0
2017-Sep-18 05:00N 59°19' E 018°06'0 0.0
2017-Sep-18 04:30N 59°19' E 018°06'0 0.0
2017-Sep-18 04:00N 59°19' E 018°06'0 0.0
2017-Sep-18 03:30N 59°19' E 018°06'0 0.0
2017-Sep-18 02:57N 59°19' E 018°06'0 0.0
2017-Sep-18 02:30N 59°19' E 018°06'0 0.0
2017-Sep-18 02:00N 59°19' E 018°06'0 0.0
2017-Sep-18 01:30N 59°19' E 018°06'0 0.0
2017-Sep-18 01:00N 59°19' E 018°06'0 0.0
2017-Sep-18 00:30N 59°19' E 018°06'0 0.0
2017-Sep-18 00:00N 59°19' E 018°06'0 0.0
2017-Sep-17 23:30N 59°19' E 018°06'0 0.0
2017-Sep-17 23:00N 59°19' E 018°06'0 0.0
2017-Sep-17 22:30N 59°19' E 018°06'0 0.0
2017-Sep-17 22:00N 59°19' E 018°06'0 0.0
2017-Sep-17 21:30N 59°19' E 018°06'0 0.0
2017-Sep-17 21:00N 59°19' E 018°06'0 0.0
2017-Sep-17 20:30N 59°19' E 018°06'0 0.0
2017-Sep-17 20:00N 59°19' E 018°06'0 0.0
2017-Sep-17 19:30N 59°19' E 018°06'0 0.0
2017-Sep-17 19:00N 59°19' E 018°06'0 0.0
2017-Sep-17 18:30N 59°19' E 018°06'0 0.0
2017-Sep-17 18:00N 59°19' E 018°06'0 0.0
2017-Sep-17 17:30N 59°19' E 018°06'0 0.0
2017-Sep-17 16:54N 59°19' E 018°06'0 0.0
2017-Sep-17 16:30N 59°19' E 018°06'0 0.0
2017-Sep-17 16:00N 59°19' E 018°06'0 0.0
2017-Sep-17 15:30N 59°19' E 018°06'0 0.0
2017-Sep-17 14:54N 59°19' E 018°06'0 0.0
2017-Sep-17 14:30N 59°19' E 018°06'0 0.3
2017-Sep-17 14:00N 59°19' E 018°06'4 7.6
2017-Sep-17 13:30N 59°21' E 018°13'4 8.0
2017-Sep-17 13:00N 59°23' E 018°20'3 5.7
2017-Sep-17 12:30N 59°25' E 018°22'3 5.0
2017-Sep-17 12:00N 59°25' E 018°27'3 2.8
2017-Sep-17 11:06N 59°25' E 018°32'1 2.6
2017-Sep-17 10:42N 59°24' E 018°33'1 4.0
2017-Sep-17 10:30N 59°24' E 018°35'5 0.3
2017-Sep-16 15:40N 59°26' E 018°43'2 7.1
2017-Sep-16 15:24N 59°26' E 018°39'2 4.6
2017-Sep-16 14:59N 59°24' E 018°37'3 6.0
2017-Sep-16 14:30N 59°25' E 018°31'1 1.8
2017-Sep-16 13:58N 59°26' E 018°30'1 2.3
2017-Sep-16 13:30N 59°26' E 018°28'1 2.2
2017-Sep-16 12:51N 59°27' E 018°25'1 1.8
2017-Sep-16 12:30N 59°26' E 018°24'1 1.7
2017-Sep-16 12:01N 59°26' E 018°24'3 5.3
2017-Sep-16 11:30N 59°23' E 018°27'2 4.9
2017-Sep-16 11:00N 59°22' E 018°23'3 6.4
2017-Sep-16 10:30N 59°22' E 018°17'4 7.5
2017-Sep-16 10:00N 59°20' E 018°11'3 4.6
2017-Sep-16 09:28N 59°19' E 018°06'0 0.0
2017-Sep-16 08:58N 59°19' E 018°06'0 0.0
2017-Sep-16 08:28N 59°19' E 018°06'0 0.0
2017-Sep-16 07:58N 59°19' E 018°06'0 0.0
2017-Sep-16 07:28N 59°19' E 018°06'0 0.0
2017-Sep-16 06:58N 59°19' E 018°06'0 0.0
2017-Sep-16 06:19N 59°19' E 018°06'0 0.0
2017-Sep-16 05:58N 59°19' E 018°06'0 0.0
2017-Sep-16 05:28N 59°19' E 018°06'0 0.0
2017-Sep-16 04:49N 59°19' E 018°06'0 0.0
2017-Sep-16 04:22N 59°19' E 018°06'0 0.0
2017-Sep-16 03:55N 59°19' E 018°06'0 0.0
2017-Sep-16 03:25N 59°19' E 018°06'0 0.0
2017-Sep-16 02:58N 59°19' E 018°06'0 0.0
2017-Sep-16 02:31N 59°19' E 018°06'0 0.0
2017-Sep-16 01:58N 59°19' E 018°06'0 0.0
2017-Sep-16 01:27N 59°19' E 018°06'0 0.0
2017-Sep-16 00:58N 59°19' E 018°06'0 0.0
2017-Sep-16 00:28N 59°19' E 018°06'0 0.0
2017-Sep-16 00:01N 59°19' E 018°06'0 0.0
2017-Sep-15 23:30N 59°19' E 018°06'0 0.0
2017-Sep-15 22:58N 59°19' E 018°06'0 0.0
2017-Sep-15 22:30N 59°19' E 018°06'0 0.0
2017-Sep-15 22:00N 59°19' E 018°06'0 0.0
2017-Sep-15 21:30N 59°19' E 018°06'0 0.0
2017-Sep-15 20:58N 59°19' E 018°06'0 0.0
2017-Sep-15 20:31N 59°19' E 018°06'0 0.0
2017-Sep-15 20:01N 59°19' E 018°06'0 0.0
2017-Sep-15 19:28N 59°19' E 018°06'0 0.0
2017-Sep-15 19:00N 59°19' E 018°06'0 0.0
2017-Sep-15 18:25N 59°19' E 018°06'0 0.0
2017-Sep-15 18:00N 59°19' E 018°06'0 0.0
2017-Sep-15 17:19N 59°19' E 018°06'0 0.0
2017-Sep-15 17:01N 59°19' E 018°06'0 0.0
2017-Sep-15 16:19N 59°19' E 018°06'0 0.0
2017-Sep-15 15:55N 59°19' E 018°06'0 0.0
2017-Sep-15 15:25N 59°19' E 018°06'0 0.0
2017-Sep-15 15:00N 59°19' E 018°06'0 0.0
2017-Sep-15 14:27N 59°19' E 018°06'0 0.0
2017-Sep-15 13:58N 59°19' E 018°06'0 0.0
2017-Sep-15 13:31N 59°19' E 018°06'0 0.0
2017-Sep-15 13:01N 59°19' E 018°06'0 0.0
2017-Sep-15 12:30N 59°19' E 018°06'0 0.0
2017-Sep-15 11:57N 59°19' E 018°06'0 0.0
2017-Sep-15 11:31N 59°19' E 018°06'0 0.0
2017-Sep-15 11:01N 59°19' E 018°06'0 0.0
2017-Sep-15 10:30N 59°19' E 018°06'0 0.0
2017-Sep-15 10:00N 59°19' E 018°06'0 0.0
2017-Sep-15 09:31N 59°19' E 018°06'0 0.0
2017-Sep-15 09:00N 59°19' E 018°06'0 0.0
2017-Sep-15 08:31N 59°19' E 018°06'0 0.0
2017-Sep-15 08:00N 59°19' E 018°06'0 0.0
2017-Sep-15 07:30N 59°19' E 018°06'0 0.0
2017-Sep-15 07:01N 59°19' E 018°06'0 0.0
2017-Sep-15 06:22N 59°19' E 018°06'0 0.0
2017-Sep-15 06:00N 59°19' E 018°06'0 0.0
2017-Sep-15 05:31N 59°19' E 018°06'0 0.0
2017-Sep-15 05:01N 59°19' E 018°06'0 0.0
2017-Sep-15 04:25N 59°19' E 018°06'0 0.0
2017-Sep-15 04:00N 59°19' E 018°06'0 0.0
2017-Sep-15 03:30N 59°19' E 018°06'0 0.0
2017-Sep-15 03:01N 59°19' E 018°06'0 0.0
2017-Sep-15 02:30N 59°19' E 018°06'0 0.0
2017-Sep-15 01:55N 59°19' E 018°06'0 0.0
2017-Sep-15 01:31N 59°19' E 018°06'0 0.0
2017-Sep-15 01:00N 59°19' E 018°06'0 0.0
2017-Sep-15 00:31N 59°19' E 018°06'0 0.0
2017-Sep-15 00:01N 59°19' E 018°06'0 0.0
2017-Sep-14 23:30N 59°19' E 018°06'0 0.0
2017-Sep-14 23:00N 59°19' E 018°06'0 0.0
2017-Sep-14 22:30N 59°19' E 018°06'0 0.0
2017-Sep-14 22:00N 59°19' E 018°06'0 0.0
2017-Sep-14 21:31N 59°19' E 018°06'0 0.0
2017-Sep-14 21:01N 59°19' E 018°06'0 0.0
2017-Sep-14 20:30N 59°19' E 018°06'0 0.0
2017-Sep-14 20:01N 59°19' E 018°06'0 0.0
2017-Sep-14 19:31N 59°19' E 018°06'0 0.0
2017-Sep-14 19:01N 59°19' E 018°06'0 0.0
2017-Sep-14 18:31N 59°19' E 018°06'0 0.0
2017-Sep-14 17:55N 59°19' E 018°06'0 0.0
2017-Sep-14 17:24N 59°19' E 018°06'0 0.0
2017-Sep-14 17:00N 59°19' E 018°06'0 0.0
2017-Sep-14 16:30N 59°19' E 018°06'0 0.0
2017-Sep-14 16:00N 59°19' E 018°06'0 0.0
2017-Sep-14 15:31N 59°19' E 018°06'0 0.0
2017-Sep-14 14:55N 59°19' E 018°06'0 0.0
2017-Sep-14 14:30N 59°19' E 018°06'0 0.0
2017-Sep-14 14:00N 59°19' E 018°06'0 0.5
2017-Sep-14 13:31N 59°19' E 018°07'2 3.3
2017-Sep-14 13:00N 59°19' E 018°10'2 5.0
2017-Sep-14 12:31N 59°21' E 018°14'3 5.2
2017-Sep-14 12:00N 59°22' E 018°18'3 5.6
2017-Sep-14 11:30N 59°22' E 018°24'2 3.6
2017-Sep-14 11:00N 59°23' E 018°27'2 4.6
2017-Sep-14 10:31N 59°25' E 018°25'1 2.3
2017-Sep-14 10:01N 59°25' E 018°27'4 4.9
2017-Sep-14 09:14N 59°24' E 018°34'1 4.5
2017-Sep-14 08:55N 59°24' E 018°37'12 0.5
2017-Sep-13 09:49N 59°12' E 018°33'2 5.6
2017-Sep-13 09:30N 59°13' E 018°30'2 4.3
2017-Sep-13 08:59N 59°14' E 018°26'0 0.1
2017-Sep-13 08:30N 59°14' E 018°26'2 3.2
2017-Sep-13 07:52N 59°14' E 018°22'0 0.0
2017-Sep-13 07:22N 59°14' E 018°22'0 0.0
2017-Sep-13 06:58N 59°14' E 018°22'0 0.0
2017-Sep-13 06:28N 59°14' E 018°22'1 2.7
2017-Sep-13 06:00N 59°14' E 018°24'1 0.8
2017-Sep-13 05:19N 59°14' E 018°24'0 0.0
2017-Sep-13 04:49N 59°14' E 018°24'0 0.0
2017-Sep-13 04:19N 59°14' E 018°24'0 0.0
2017-Sep-13 03:37N 59°14' E 018°24'0 0.0
2017-Sep-13 02:31N 59°14' E 018°24'0 0.0
2017-Sep-13 02:13N 59°14' E 018°24'0 0.0
2017-Sep-12 22:07N 59°14' E 018°24'0 0.0
2017-Sep-12 21:55N 59°14' E 018°24'0 0.0
2017-Sep-12 21:25N 59°14' E 018°24'0 0.0
2017-Sep-12 20:55N 59°14' E 018°24'0 0.0
2017-Sep-12 20:25N 59°14' E 018°24'0 0.0
2017-Sep-12 19:55N 59°14' E 018°24'0 0.0
2017-Sep-12 19:13N 59°14' E 018°24'0 0.0
2017-Sep-12 18:07N 59°14' E 018°24'0 0.0
2017-Sep-12 17:49N 59°14' E 018°24'0 0.0
2017-Sep-12 17:13N 59°14' E 018°24'0 0.0
2017-Sep-12 16:55N 59°14' E 018°24'0 0.0
2017-Sep-12 16:25N 59°14' E 018°24'0 0.0
2017-Sep-12 15:55N 59°14' E 018°24'0 0.2
2017-Sep-12 15:30N 59°14' E 018°24'0 0.1
2017-Sep-12 15:00N 59°14' E 018°24'1 1.3
2017-Sep-12 14:31N 59°14' E 018°24'1 2.8
2017-Sep-12 13:59N 59°12' E 018°26'2 3.8
2017-Sep-12 13:31N 59°13' E 018°30'1 2.2
2017-Sep-12 13:01N 59°13' E 018°28'2 3.3
2017-Sep-12 12:30N 59°14' E 018°26'0 0.9
2017-Sep-12 12:00N 59°14' E 018°25'2 4.0
2017-Sep-12 11:31N 59°16' E 018°22'2 4.7
2017-Sep-12 11:00N 59°18' E 018°19'1 2.7
2017-Sep-12 10:30N 59°18' E 018°17'2 3.7
2017-Sep-12 10:00N 59°19' E 018°13'1 2.8
2017-Sep-12 09:31N 59°20' E 018°11'3 5.3
2017-Sep-12 09:00N 59°19' E 018°06'0 0.0
2017-Sep-12 08:30N 59°19' E 018°06'0 0.0
2017-Sep-12 08:00N 59°19' E 018°06'0 0.0
2017-Sep-12 07:30N 59°19' E 018°06'0 0.0
2017-Sep-12 07:00N 59°19' E 018°06'0 0.0
2017-Sep-12 06:30N 59°19' E 018°06'0 0.0
2017-Sep-12 06:00N 59°19' E 018°06'0 0.0
2017-Sep-12 05:30N 59°19' E 018°06'0 0.0
2017-Sep-12 05:00N 59°19' E 018°06'0 0.0
2017-Sep-12 04:30N 59°19' E 018°06'0 0.0
2017-Sep-12 04:00N 59°19' E 018°06'0 0.0
2017-Sep-12 03:30N 59°19' E 018°06'0 0.0
2017-Sep-12 03:00N 59°19' E 018°06'0 0.0
2017-Sep-12 02:30N 59°19' E 018°06'  

Dump ship's entire track history